This is the latest recevied weather packets stored in our database for station/object JA1RBY-13. If no packets are shown the sender has not sent any weather packets the latest 10 day(s).
| Time | Temp. | Humidity | Pressure | Rain* | Wind** | Luminosity | Snow |
|---|---|---|---|---|---|---|---|
| 1788344395 | 26.67° C | 66% | 1013.9 hPa | 0 mm | - | - | - |
| 1788342597 | 27.22° C | 65% | 1013.4 hPa | 0 mm | - | - | - |
| 1788340796 | 27.22° C | 64% | 1013.3 hPa | 0 mm | - | - | - |
| 1788338996 | 27.78° C | 62% | 1013.3 hPa | 0 mm | - | - | - |
| 1788337197 | 28.33° C | 62% | 1013.4 hPa | 0 mm | - | - | - |
| 1788335397 | 28.89° C | 62% | 1013.5 hPa | 0 mm | - | - | - |
| 1788333597 | 29.44° C | 60% | 1013.4 hPa | 0 mm | - | - | - |
| 1788331797 | 30.56° C | 55% | 1013.2 hPa | 0 mm | - | - | - |
| 1788329996 | 31.67° C | 50% | 1012.9 hPa | 0 mm | - | - | - |
| 1788328196 | 32.78° C | 48% | 1013.1 hPa | 0 mm | - | - | - |
| 1788322797 | 33.89° C | 47% | 1014 hPa | 0 mm | - | - | - |
| 1788299398 | 25° C | 73% | 1015.4 hPa | 0 mm | - | - | - |
| 1788297597 | 24.44° C | 73% | 1015.5 hPa | 0 mm | - | - | - |
| 1788293997 | 24.44° C | 73% | 1015.6 hPa | 0 mm | - | - | - |
| 1788292196 | 24.44° C | 73% | 1015.8 hPa | 0 mm | - | - | - |
| 1788286797 | 24.44° C | 72% | 1015.8 hPa | 0 mm | - | - | - |
| 1788283197 | 24.44° C | 72% | 1016.1 hPa | 0 mm | - | - | - |
| 1788279597 | 25° C | 71% | 1016.1 hPa | 0 mm | - | - | - |
| 1788275997 | 25.56° C | 70% | 1016.6 hPa | 0 mm | - | - | - |
| 1788272397 | 25.56° C | 69% | 1016.8 hPa | 0 mm | - | - | - |
| 1788268797 | 26.11° C | 69% | 1017 hPa | 0 mm | - | - | - |
| 1788265196 | 26.11° C | 68% | 1017.2 hPa | 0 mm | - | - | - |
| 1788263397 | 26.11° C | 68% | 1017.2 hPa | 0 mm | - | - | - |
| 1788261597 | 26.67° C | 67% | 1017.1 hPa | 0 mm | - | - | - |
| 1788259797 | 26.67° C | 66% | 1017.1 hPa | 0 mm | - | - | - |
* Rain latest hour (hover to see other rain measurements)
** Current wind speed in m/s (hover to see current wind gust speed)